Stations météo

réclame
Mon MeteoGroup
Bramham, Grande-Bretagne (99077): Température de l'air & dewpoint: 22.02.2020 19:00:00 - 28.02.2020 19:00:00 (GMT)Bramham, Grande-Bretagne (99077): Vitesse du vent & gusts: 22.02.2020 19:00:00 - 28.02.2020 19:00:00 (GMT)Bramham, Grande-Bretagne (99077): Direction du vent: 22.02.2020 19:00:00 - 28.02.2020 19:00:00 (GMT)Bramham, Grande-Bretagne (99077): Quantités de précipitations: 22.02.2020 19:00:00 - 28.02.2020 19:00:00 (GMT)
Date & Time tt [°C] td [°C] ff [km/h] ff [knt] fx [km/h] fx [knt] dd rr [mm]
28.02.2020 19:00:00 - - - - - - - -
28.02.2020 18:00:00 6,5 6,1 16 9 - - SE 0,0
28.02.2020 17:00:00 6,1 5,6 22 12 - - SSE 0,0
28.02.2020 16:00:00 5,2 5,0 28 15 - - SSE 1,2
28.02.2020 15:00:00 3,9 3,6 28 15 48 26 SSE 2,2
28.02.2020 14:00:00 3,4 2,9 41 22 52 28 SSE 1,2
28.02.2020 13:00:00 2,7 2,1 37 20 48 26 SSE 1,4
28.02.2020 12:00:00 2,7 2,1 35 19 55 30 SE 0,8
28.02.2020 11:00:00 2,9 2,1 29 16 - - SE 0,4
28.02.2020 10:00:00 3,1 1,0 26 14 - - SSE 0,0
28.02.2020 09:00:00 2,9 0,3 24 13 - - SSE 0,0
28.02.2020 08:00:00 2,4 0,1 16 9 - - SSE 0,0
28.02.2020 07:00:00 1,7 0,2 11 6 - - SSE 0,0
28.02.2020 06:00:00 1,7 0,2 9 5 - - S 0,0
28.02.2020 05:00:00 2,1 0,2 15 8 - - SSE 0,0
28.02.2020 04:00:00 2,3 0,3 15 8 - - S 0,0
28.02.2020 03:00:00 2,7 0,2 16 9 - - S 0,0
28.02.2020 02:00:00 2,1 0,8 9 5 - - ESE 0,0
28.02.2020 01:00:00 1,5 0,1 13 7 - - SSE 0,0
28.02.2020 00:00:00 2,2 -0,6 4 2 - - SSW 0,0
27.02.2020 23:00:00 2,7 -0,1 11 6 - - WSW 0,0
27.02.2020 22:00:00 2,8 -0,2 11 6 - - W 0,0
27.02.2020 21:00:00 3,5 0,4 28 15 50 27 W 0,0
27.02.2020 20:00:00 3,7 -0,1 28 15 48 26 W 0,0
27.02.2020 19:00:00 4,0 0,2 28 15 - - W 0,0
27.02.2020 18:00:00 3,7 0,3 21 11 - - W 0,0
27.02.2020 17:00:00 4,9 -0,1 29 16 46 25 W 0,0
27.02.2020 16:00:00 5,8 0,1 28 15 52 28 W 0,0
27.02.2020 15:00:00 5,8 -2,0 34 18 55 30 WNW 0,0
27.02.2020 14:00:00 6,1 -1,7 35 19 55 30 WNW 0,0
27.02.2020 13:00:00 5,8 -1,9 34 18 54 29 WNW 0,0
27.02.2020 12:00:00 5,4 -0,3 31 17 - - WNW 0,0
27.02.2020 11:00:00 4,8 0,1 26 14 - - WNW 0,0
27.02.2020 10:00:00 3,7 0,3 22 12 - - NW 0,0
27.02.2020 09:00:00 3,0 1,3 16 9 - - W 0,0
27.02.2020 08:00:00 1,5 0,7 8 4 - - W 0,0
27.02.2020 07:00:00 1,7 1,1 8 4 - - SW 0,0
27.02.2020 06:00:00 1,6 1,1 11 6 - - SW 0,2
27.02.2020 05:00:00 2,2 1,5 11 6 - - SSW 0,0
27.02.2020 04:00:00 2,4 1,4 13 7 - - SSW 0,6
27.02.2020 03:00:00 2,9 0,9 13 7 - - SSW 0,0
27.02.2020 02:00:00 2,4 0,4 13 7 - - SSE 0,0
27.02.2020 01:00:00 2,9 0,0 16 9 - - S 0,0
27.02.2020 00:00:00 2,8 -0,2 16 9 - - S 0,0
26.02.2020 23:00:00 2,7 -0,3 16 9 - - SSW 0,0
26.02.2020 22:00:00 2,8 0,2 21 11 - - SSW 0,0
26.02.2020 21:00:00 2,7 -0,1 11 6 - - S 0,0
26.02.2020 20:00:00 3,6 0,2 16 9 - - WSW 0,0
26.02.2020 19:00:00 3,6 0,0 16 9 - - WSW 0,0
26.02.2020 18:00:00 4,2 -0,8 13 7 - - WSW 0,0
26.02.2020 17:00:00 5,3 -1,2 29 16 52 28 W 0,0
26.02.2020 16:00:00 5,9 -0,1 34 18 54 29 W 0,0
26.02.2020 15:00:00 6,3 0,0 35 19 52 28 W 0,0
26.02.2020 14:00:00 6,8 -0,6 29 16 57 31 W 0,0
26.02.2020 13:00:00 6,6 0,8 29 16 54 29 W 0,0
26.02.2020 12:00:00 6,0 0,9 22 12 - - W 0,0
26.02.2020 11:00:00 5,5 1,8 22 12 - - W 0,0
26.02.2020 10:00:00 4,1 1,2 16 9 - - W 0,0
26.02.2020 09:00:00 2,6 0,9 9 5 - - W 0,0
26.02.2020 08:00:00 1,7 0,5 8 4 - - W 0,0
26.02.2020 07:00:00 1,6 0,3 16 9 - - W 0,0
26.02.2020 06:00:00 1,9 0,4 21 11 - - W 0,0
26.02.2020 05:00:00 2,2 0,5 22 12 - - W 0,0
26.02.2020 04:00:00 2,3 0,7 11 6 - - WSW 0,0
26.02.2020 03:00:00 2,3 0,7 26 14 - - W 0,0
26.02.2020 02:00:00 1,9 0,6 21 11 - - W 0,0
26.02.2020 01:00:00 2,2 0,8 16 9 - - W 0,0
26.02.2020 00:00:00 2,5 0,9 18 10 - - W 0,0
25.02.2020 23:00:00 - - 8 4 - - WSW 0,0
25.02.2020 22:00:00 - - 11 6 - - WSW 0,0
25.02.2020 21:00:00 - - 11 6 - - WSW 0,0
25.02.2020 20:00:00 - - 16 9 - - WSW 0,0
25.02.2020 19:00:00 - - 13 7 - - SW 0,0
25.02.2020 18:00:00 - - 8 4 - - WSW 0,0
25.02.2020 17:00:00 - - 15 8 - - SW 0,0
25.02.2020 16:00:00 - - 11 6 - - W 0,0
25.02.2020 15:00:00 - - 24 13 - - SW 0,0
25.02.2020 14:00:00 - - 21 11 - - WSW 0,0
25.02.2020 13:00:00 - - 21 11 48 26 W 0,0
25.02.2020 12:00:00 5,7 2,6 16 9 - - W 0,0
25.02.2020 11:00:00 - - - - - - - -
25.02.2020 10:00:00 4,0 2,3 21 11 - - W 0,2
25.02.2020 09:00:00 2,8 1,8 16 9 - - SW 0,2
25.02.2020 08:00:00 2,1 1,2 13 7 - - SW 0,6
25.02.2020 07:00:00 3,5 1,2 22 12 - - W 0,0
25.02.2020 06:00:00 3,9 0,9 21 11 52 28 WSW 0,0
25.02.2020 05:00:00 4,0 1,4 34 18 55 30 WSW 0,0
25.02.2020 04:00:00 3,7 1,5 34 18 65 35 WSW 0,0
25.02.2020 03:00:00 4,5 1,3 34 18 70 38 WSW 0,0
25.02.2020 02:00:00 4,1 1,6 31 17 57 31 WSW 0,0
25.02.2020 01:00:00 4,8 0,7 34 18 52 28 W 0,0
25.02.2020 00:00:00 4,7 1,5 37 20 67 36 W 0,0
24.02.2020 23:00:00 5,0 1,2 31 17 55 30 W 0,0
24.02.2020 22:00:00 5,1 1,9 37 20 59 32 W 0,0
24.02.2020 21:00:00 4,6 1,7 39 21 68 37 W 0,0
24.02.2020 20:00:00 5,1 1,7 46 25 85 46 W 0,0
24.02.2020 19:00:00 6,4 1,9 42 23 70 38 W 0,0
24.02.2020 18:00:00 6,8 2,5 46 25 70 38 WSW 0,0
24.02.2020 17:00:00 7,8 4,0 42 23 72 39 WSW 0,0
24.02.2020 16:00:00 10,4 6,1 44 24 76 41 WSW 0,0
24.02.2020 15:00:00 11,1 7,3 48 26 80 43 WSW 0,0
24.02.2020 14:00:00 12,1 9,1 44 24 67 36 SW 0,0
24.02.2020 13:00:00 11,7 9,5 42 23 65 35 SW 0,0
24.02.2020 12:00:00 10,1 9,5 31 17 50 27 SW 0,0
24.02.2020 11:00:00 5,3 5,3 21 11 - - S 2,2
24.02.2020 10:00:00 2,6 2,6 18 10 - - SSE 3,8
24.02.2020 09:00:00 1,8 1,8 16 9 - - ESE 2,6
24.02.2020 08:00:00 0,3 0,3 21 11 - - E 0,2
24.02.2020 07:00:00 0,2 0,1 18 10 - - E 0,4
24.02.2020 06:00:00 0,6 0,4 16 9 - - E 2,4
24.02.2020 05:00:00 2,0 1,5 21 11 - - SE 1,6
24.02.2020 04:00:00 2,9 1,4 26 14 - - SSE 1,0
24.02.2020 03:00:00 3,5 1,9 13 7 - - SSE 0,0
24.02.2020 02:00:00 3,7 1,7 9 5 - - SSE 0,0
24.02.2020 01:00:00 3,7 1,6 8 4 - - SSE 0,0
24.02.2020 00:00:00 3,3 0,7 9 5 - - S 0,0
23.02.2020 23:00:00 3,8 0,1 9 5 - - SW 0,0
23.02.2020 22:00:00 4,9 -0,5 9 5 - - WSW 0,0
23.02.2020 21:00:00 4,5 -0,3 8 4 - - SW 0,0
23.02.2020 20:00:00 4,8 -0,4 16 9 - - W 0,0
23.02.2020 19:00:00 5,5 -0,4 24 13 52 28 W 0,0
23.02.2020 18:00:00 5,5 -0,2 28 15 54 29 W 0,0
23.02.2020 17:00:00 5,6 -0,2 31 17 - - W 0,0
23.02.2020 16:00:00 6,0 0,2 31 17 55 30 W 0,0
23.02.2020 15:00:00 6,8 0,2 35 19 61 33 W 0,0
23.02.2020 14:00:00 6,3 0,4 35 19 65 35 W 0,0
23.02.2020 13:00:00 7,0 1,4 39 21 61 33 W 0,0
23.02.2020 12:00:00 7,1 3,9 39 21 63 34 W 0,0
23.02.2020 11:00:00 6,4 4,2 31 17 50 27 W 0,0
23.02.2020 10:00:00 6,9 5,7 22 12 - - W 0,0
23.02.2020 09:00:00 5,3 5,0 9 5 - - W 0,0
23.02.2020 08:00:00 5,0 4,9 8 4 - - SW 0,2
23.02.2020 07:00:00 4,8 4,7 2 1 - - SSE 1,6
23.02.2020 06:00:00 4,9 4,7 4 2 - - SSE 2,2
23.02.2020 05:00:00 4,8 4,5 11 6 - - SE 1,8
23.02.2020 04:00:00 4,9 4,3 11 6 - - SSE 1,2
23.02.2020 03:00:00 5,3 4,4 16 9 - - S 0,8
23.02.2020 02:00:00 5,7 4,4 28 15 50 27 SSW 0,6
23.02.2020 01:00:00 5,9 4,0 31 17 54 29 SW 0,2
23.02.2020 00:00:00 5,8 3,6 24 13 - - SW 0,0
22.02.2020 23:00:00 5,7 3,7 24 13 65 35 WSW 0,2
22.02.2020 22:00:00 7,3 2,8 31 17 50 27 WSW 0,0
22.02.2020 21:00:00 6,9 2,5 28 15 63 34 WSW 0,0
22.02.2020 20:00:00 6,6 2,6 22 12 46 25 WSW 0,0
22.02.2020 19:00:00 6,7 2,6 31 17 55 30 WSW 0,0

tt = Température de l'air
td = dewpoint
ff = Vitesse du vent
fx = gusts
dd = Direction du vent
rr = Quantités de précipitations

stations d'obs. à proximité